Geuda Springs, Kansas
Current Conditions -  °F | °C
As of 10:54 AM on Saturday 25 Oct 2014 (Local Time) from KWLD Reporting Station
Clear Clear  
Wind Chill: 71°   Ceiling: Unl
Heat Index: 71°   Visibility: 10mi
Dew Point: 63°   Wind: 5mph
Humidity: 75%   Direction: 210°SSW
Pressure: 30.09"   Gusts: NA
Location:  37.11°N, 97.15°W
Report Text: KWLD 251554Z AUTO 21004KT 10SM CLR 22/17 A3009 RMK AO2 SLP183 T02170172
Loading
Personal Weather Stations






























Interactive Weather Map
Tropical Storm Tracking
New forecast layout! Learn more

10-Day Weather Forecast

Advertisements
Track Severe Weather on mobile